sensor_id;sensor_type;location;lat;lon;timestamp;temperature;humidity
19164;DHT22;9714;51.208;4.242;2022-08-06T00:01:10;15.90;99.90
19164;DHT22;9714;51.208;4.242;2022-08-06T00:03:37;15.90;99.90
19164;DHT22;9714;51.208;4.242;2022-08-06T00:06:04;15.80;99.90
19164;DHT22;9714;51.208;4.242;2022-08-06T00:08:31;15.80;99.90
19164;DHT22;9714;51.208;4.242;2022-08-06T00:11:00;15.80;99.90
19164;DHT22;9714;51.208;4.242;2022-08-06T00:13:27;15.80;99.90
19164;DHT22;9714;51.208;4.242;2022-08-06T00:15:54;15.70;99.90
19164;DHT22;9714;51.208;4.242;2022-08-06T00:18:21;15.90;99.90
19164;DHT22;9714;51.208;4.242;2022-08-06T00:20:49;15.80;99.90
19164;DHT22;9714;51.208;4.242;2022-08-06T00:23:16;15.90;99.90
19164;DHT22;9714;51.208;4.242;2022-08-06T00:25:43;16.10;99.90
19164;DHT22;9714;51.208;4.242;2022-08-06T00:28:12;16.20;99.90
19164;DHT22;9714;51.208;4.242;2022-08-06T00:30:39;16.30;99.90
19164;DHT22;9714;51.208;4.242;2022-08-06T00:33:07;16.00;99.90
19164;DHT22;9714;51.208;4.242;2022-08-06T00:35:36;15.90;99.90
19164;DHT22;9714;51.208;4.242;2022-08-06T00:38:03;15.70;99.90
19164;DHT22;9714;51.208;4.242;2022-08-06T00:40:31;15.50;99.90
19164;DHT22;9714;51.208;4.242;2022-08-06T00:42:59;15.40;99.90
19164;DHT22;9714;51.208;4.242;2022-08-06T00:45:28;15.40;99.90
19164;DHT22;9714;51.208;4.242;2022-08-06T00:47:56;15.40;99.90
19164;DHT22;9714;51.208;4.242;2022-08-06T00:50:25;15.30;99.90
19164;DHT22;9714;51.208;4.242;2022-08-06T00:52:52;15.30;99.90
19164;DHT22;9714;51.208;4.242;2022-08-06T00:55:20;15.20;99.90
19164;DHT22;9714;51.208;4.242;2022-08-06T00:57:47;15.00;99.90
19164;DHT22;9714;51.208;4.242;2022-08-06T01:00:14;15.00;99.90
19164;DHT22;9714;51.208;4.242;2022-08-06T01:02:43;15.10;99.90
19164;DHT22;9714;51.208;4.242;2022-08-06T01:05:11;15.10;99.90
19164;DHT22;9714;51.208;4.242;2022-08-06T01:07:39;15.20;99.90
19164;DHT22;9714;51.208;4.242;2022-08-06T01:10:07;15.10;99.90
19164;DHT22;9714;51.208;4.242;2022-08-06T01:12:34;15.10;99.90
19164;DHT22;9714;51.208;4.242;2022-08-06T01:15:03;15.00;99.90
19164;DHT22;9714;51.208;4.242;2022-08-06T01:17:34;15.00;99.90
19164;DHT22;9714;51.208;4.242;2022-08-06T01:20:14;15.00;99.90
19164;DHT22;9714;51.208;4.242;2022-08-06T01:23:02;15.00;99.90
19164;DHT22;9714;51.208;4.242;2022-08-06T01:25:59;15.10;99.90
19164;DHT22;9714;51.208;4.242;2022-08-06T01:28:34;15.00;99.90
19164;DHT22;9714;51.208;4.242;2022-08-06T01:31:06;15.00;99.90
19164;DHT22;9714;51.208;4.242;2022-08-06T01:33:38;15.10;99.90
19164;DHT22;9714;51.208;4.242;2022-08-06T01:36:08;15.10;99.90
19164;DHT22;9714;51.208;4.242;2022-08-06T01:38:41;15.10;99.90
19164;DHT22;9714;51.208;4.242;2022-08-06T01:41:11;14.90;99.90
19164;DHT22;9714;51.208;4.242;2022-08-06T01:44:01;14.80;99.90
19164;DHT22;9714;51.208;4.242;2022-08-06T01:46:30;14.70;99.90
19164;DHT22;9714;51.208;4.242;2022-08-06T01:48:59;14.90;99.90
19164;DHT22;9714;51.208;4.242;2022-08-06T01:51:27;14.90;99.90
19164;DHT22;9714;51.208;4.242;2022-08-06T01:53:56;14.70;99.90
19164;DHT22;9714;51.208;4.242;2022-08-06T01:56:25;14.70;99.90
19164;DHT22;9714;51.208;4.242;2022-08-06T01:58:54;14.60;99.90
19164;DHT22;9714;51.208;4.242;2022-08-06T02:01:24;14.50;99.90
19164;DHT22;9714;51.208;4.242;2022-08-06T02:03:54;14.60;99.90
19164;DHT22;9714;51.208;4.242;2022-08-06T02:06:25;14.70;99.90
19164;DHT22;9714;51.208;4.242;2022-08-06T02:08:53;14.50;99.90
19164;DHT22;9714;51.208;4.242;2022-08-06T02:11:21;14.50;99.90
19164;DHT22;9714;51.208;4.242;2022-08-06T02:13:49;14.40;99.90
19164;DHT22;9714;51.208;4.242;2022-08-06T02:16:19;14.50;99.90
19164;DHT22;9714;51.208;4.242;2022-08-06T02:18:50;14.50;99.90
19164;DHT22;9714;51.208;4.242;2022-08-06T02:21:19;14.50;99.90
19164;DHT22;9714;51.208;4.242;2022-08-06T02:23:50;14.60;99.90
19164;DHT22;9714;51.208;4.242;2022-08-06T02:26:20;14.80;99.90
19164;DHT22;9714;51.208;4.242;2022-08-06T02:28:52;14.60;99.90
19164;DHT22;9714;51.208;4.242;2022-08-06T02:31:20;14.90;99.90
19164;DHT22;9714;51.208;4.242;2022-08-06T02:33:47;14.70;99.90
19164;DHT22;9714;51.208;4.242;2022-08-06T02:36:25;14.40;99.90
19164;DHT22;9714;51.208;4.242;2022-08-06T02:38:59;14.20;99.90
19164;DHT22;9714;51.208;4.242;2022-08-06T02:41:30;14.10;99.90
19164;DHT22;9714;51.208;4.242;2022-08-06T02:44:06;14.10;99.90
19164;DHT22;9714;51.208;4.242;2022-08-06T02:46:39;14.10;99.90
19164;DHT22;9714;51.208;4.242;2022-08-06T02:49:10;14.10;99.90
19164;DHT22;9714;51.208;4.242;2022-08-06T02:51:44;14.10;99.90
19164;DHT22;9714;51.208;4.242;2022-08-06T02:54:17;14.20;99.90
19164;DHT22;9714;51.208;4.242;2022-08-06T02:56:47;14.30;99.90
19164;DHT22;9714;51.208;4.242;2022-08-06T02:59:20;14.30;99.90
19164;DHT22;9714;51.208;4.242;2022-08-06T03:01:51;14.30;99.90
19164;DHT22;9714;51.208;4.242;2022-08-06T03:04:21;14.30;99.90
19164;DHT22;9714;51.208;4.242;2022-08-06T03:06:51;14.20;99.90
19164;DHT22;9714;51.208;4.242;2022-08-06T03:09:19;14.20;99.90
19164;DHT22;9714;51.208;4.242;2022-08-06T03:11:47;14.20;99.90
19164;DHT22;9714;51.208;4.242;2022-08-06T03:14:16;14.40;99.90
19164;DHT22;9714;51.208;4.242;2022-08-06T03:16:44;14.20;99.90
19164;DHT22;9714;51.208;4.242;2022-08-06T03:19:13;14.10;99.90
19164;DHT22;9714;51.208;4.242;2022-08-06T03:21:41;14.10;99.90
19164;DHT22;9714;51.208;4.242;2022-08-06T03:24:12;14.00;99.90
19164;DHT22;9714;51.208;4.242;2022-08-06T03:26:40;14.00;99.90
19164;DHT22;9714;51.208;4.242;2022-08-06T03:29:09;13.90;99.90
19164;DHT22;9714;51.208;4.242;2022-08-06T03:31:37;13.90;99.90
19164;DHT22;9714;51.208;4.242;2022-08-06T03:34:06;14.20;99.90
19164;DHT22;9714;51.208;4.242;2022-08-06T03:36:34;14.30;99.90
19164;DHT22;9714;51.208;4.242;2022-08-06T03:39:04;14.50;99.90
19164;DHT22;9714;51.208;4.242;2022-08-06T03:41:35;14.40;99.90
19164;DHT22;9714;51.208;4.242;2022-08-06T03:44:03;14.30;99.90
19164;DHT22;9714;51.208;4.242;2022-08-06T03:46:35;14.00;99.90
19164;DHT22;9714;51.208;4.242;2022-08-06T03:49:06;13.90;99.90
19164;DHT22;9714;51.208;4.242;2022-08-06T03:51:36;13.80;99.90
19164;DHT22;9714;51.208;4.242;2022-08-06T03:54:04;13.90;99.90
19164;DHT22;9714;51.208;4.242;2022-08-06T03:56:35;13.80;99.90
19164;DHT22;9714;51.208;4.242;2022-08-06T03:59:05;13.70;99.90
19164;DHT22;9714;51.208;4.242;2022-08-06T04:01:35;13.80;99.90
19164;DHT22;9714;51.208;4.242;2022-08-06T04:04:03;13.90;99.90
19164;DHT22;9714;51.208;4.242;2022-08-06T04:06:33;13.80;99.90
19164;DHT22;9714;51.208;4.242;2022-08-06T04:09:01;13.90;99.90
19164;DHT22;9714;51.208;4.242;2022-08-06T04:11:29;13.90;99.90
19164;DHT22;9714;51.208;4.242;2022-08-06T04:13:58;14.00;99.90
19164;DHT22;9714;51.208;4.242;2022-08-06T04:16:26;13.90;99.90
19164;DHT22;9714;51.208;4.242;2022-08-06T04:18:55;13.80;99.90
19164;DHT22;9714;51.208;4.242;2022-08-06T04:21:23;13.70;99.90
19164;DHT22;9714;51.208;4.242;2022-08-06T04:23:52;13.80;99.90
19164;DHT22;9714;51.208;4.242;2022-08-06T04:26:22;13.80;99.90
19164;DHT22;9714;51.208;4.242;2022-08-06T04:28:52;13.80;99.90
19164;DHT22;9714;51.208;4.242;2022-08-06T04:31:24;14.00;99.90
19164;DHT22;9714;51.208;4.242;2022-08-06T04:33:52;13.90;99.90
19164;DHT22;9714;51.208;4.242;2022-08-06T04:36:21;13.80;99.90
19164;DHT22;9714;51.208;4.242;2022-08-06T04:38:49;13.90;99.90
19164;DHT22;9714;51.208;4.242;2022-08-06T04:41:22;13.80;99.90
19164;DHT22;9714;51.208;4.242;2022-08-06T04:43:50;13.80;99.90
19164;DHT22;9714;51.208;4.242;2022-08-06T04:46:18;13.80;99.90
19164;DHT22;9714;51.208;4.242;2022-08-06T04:48:49;13.70;99.90
19164;DHT22;9714;51.208;4.242;2022-08-06T04:51:16;13.80;99.90
19164;DHT22;9714;51.208;4.242;2022-08-06T04:53:44;13.90;99.90
19164;DHT22;9714;51.208;4.242;2022-08-06T04:56:13;13.90;99.90
19164;DHT22;9714;51.208;4.242;2022-08-06T04:58:40;14.00;99.90
19164;DHT22;9714;51.208;4.242;2022-08-06T05:01:07;14.20;99.90
19164;DHT22;9714;51.208;4.242;2022-08-06T05:03:34;14.20;99.90
19164;DHT22;9714;51.208;4.242;2022-08-06T05:06:09;14.30;99.90
19164;DHT22;9714;51.208;4.242;2022-08-06T05:08:40;14.40;99.90
19164;DHT22;9714;51.208;4.242;2022-08-06T05:11:22;14.60;99.90
19164;DHT22;9714;51.208;4.242;2022-08-06T05:13:54;14.70;99.90
19164;DHT22;9714;51.208;4.242;2022-08-06T05:16:22;14.80;99.90
19164;DHT22;9714;51.208;4.242;2022-08-06T05:18:57;14.80;99.90
19164;DHT22;9714;51.208;4.242;2022-08-06T05:21:29;14.70;99.90
19164;DHT22;9714;51.208;4.242;2022-08-06T05:23:58;14.50;99.90
19164;DHT22;9714;51.208;4.242;2022-08-06T05:26:27;14.50;99.90
19164;DHT22;9714;51.208;4.242;2022-08-06T05:28:54;14.60;99.90
19164;DHT22;9714;51.208;4.242;2022-08-06T05:31:32;14.80;99.90
19164;DHT22;9714;51.208;4.242;2022-08-06T05:34:00;15.20;99.90
19164;DHT22;9714;51.208;4.242;2022-08-06T05:36:29;15.50;99.90
19164;DHT22;9714;51.208;4.242;2022-08-06T05:38:56;15.40;99.90
19164;DHT22;9714;51.208;4.242;2022-08-06T05:41:23;15.60;99.90
19164;DHT22;9714;51.208;4.242;2022-08-06T05:43:51;15.80;99.90
19164;DHT22;9714;51.208;4.242;2022-08-06T05:46:20;15.90;99.90
19164;DHT22;9714;51.208;4.242;2022-08-06T05:48:55;16.00;99.90
19164;DHT22;9714;51.208;4.242;2022-08-06T05:51:32;15.90;99.90
19164;DHT22;9714;51.208;4.242;2022-08-06T05:54:17;15.80;99.90
19164;DHT22;9714;51.208;4.242;2022-08-06T05:56:47;16.00;99.90
19164;DHT22;9714;51.208;4.242;2022-08-06T05:59:19;15.90;99.90
19164;DHT22;9714;51.208;4.242;2022-08-06T06:01:48;16.30;99.90
19164;DHT22;9714;51.208;4.242;2022-08-06T06:04:16;16.20;99.90
19164;DHT22;9714;51.208;4.242;2022-08-06T06:06:47;16.50;99.90
19164;DHT22;9714;51.208;4.242;2022-08-06T06:09:16;16.50;99.90
19164;DHT22;9714;51.208;4.242;2022-08-06T06:11:45;16.80;99.90
19164;DHT22;9714;51.208;4.242;2022-08-06T06:14:29;16.60;99.90
19164;DHT22;9714;51.208;4.242;2022-08-06T06:17:17;16.70;99.90
19164;DHT22;9714;51.208;4.242;2022-08-06T06:20:06;16.80;99.90
19164;DHT22;9714;51.208;4.242;2022-08-06T06:22:50;17.00;99.90
19164;DHT22;9714;51.208;4.242;2022-08-06T06:25:23;17.10;99.90
19164;DHT22;9714;51.208;4.242;2022-08-06T06:27:56;17.30;99.90
19164;DHT22;9714;51.208;4.242;2022-08-06T06:30:29;17.70;99.90
19164;DHT22;9714;51.208;4.242;2022-08-06T06:33:02;17.70;99.90
19164;DHT22;9714;51.208;4.242;2022-08-06T06:35:39;17.80;99.90
19164;DHT22;9714;51.208;4.242;2022-08-06T06:38:34;17.90;99.90
19164;DHT22;9714;51.208;4.242;2022-08-06T06:41:09;18.20;99.90
19164;DHT22;9714;51.208;4.242;2022-08-06T06:43:43;17.90;99.90
19164;DHT22;9714;51.208;4.242;2022-08-06T06:46:19;18.20;99.90
19164;DHT22;9714;51.208;4.242;2022-08-06T06:48:49;18.40;99.90
19164;DHT22;9714;51.208;4.242;2022-08-06T06:51:32;18.50;99.90
19164;DHT22;9714;51.208;4.242;2022-08-06T06:54:01;18.80;99.90
19164;DHT22;9714;51.208;4.242;2022-08-06T06:56:39;18.70;99.90
19164;DHT22;9714;51.208;4.242;2022-08-06T06:59:14;18.80;99.90
19164;DHT22;9714;51.208;4.242;2022-08-06T07:01:43;18.90;99.90
19164;DHT22;9714;51.208;4.242;2022-08-06T07:04:13;18.80;99.90
19164;DHT22;9714;51.208;4.242;2022-08-06T07:06:41;19.00;99.90
19164;DHT22;9714;51.208;4.242;2022-08-06T07:09:16;19.30;99.90
19164;DHT22;9714;51.208;4.242;2022-08-06T07:11:45;19.60;99.90
19164;DHT22;9714;51.208;4.242;2022-08-06T07:14:13;19.80;99.90
19164;DHT22;9714;51.208;4.242;2022-08-06T07:16:41;20.00;99.90
19164;DHT22;9714;51.208;4.242;2022-08-06T07:19:09;20.40;99.90
19164;DHT22;9714;51.208;4.242;2022-08-06T07:21:39;20.60;99.90
19164;DHT22;9714;51.208;4.242;2022-08-06T07:24:08;20.80;99.90
19164;DHT22;9714;51.208;4.242;2022-08-06T07:26:37;21.00;99.90
19164;DHT22;9714;51.208;4.242;2022-08-06T07:29:05;21.20;99.90
19164;DHT22;9714;51.208;4.242;2022-08-06T07:31:35;21.90;99.90
19164;DHT22;9714;51.208;4.242;2022-08-06T07:34:03;21.80;99.90
19164;DHT22;9714;51.208;4.242;2022-08-06T07:36:33;22.00;99.90
19164;DHT22;9714;51.208;4.242;2022-08-06T07:39:07;21.50;99.90
19164;DHT22;9714;51.208;4.242;2022-08-06T07:41:37;21.90;99.90
19164;DHT22;9714;51.208;4.242;2022-08-06T07:44:06;21.90;99.90
19164;DHT22;9714;51.208;4.242;2022-08-06T07:46:40;22.60;99.90
19164;DHT22;9714;51.208;4.242;2022-08-06T07:49:08;22.60;99.90
19164;DHT22;9714;51.208;4.242;2022-08-06T07:51:41;22.80;99.90
19164;DHT22;9714;51.208;4.242;2022-08-06T07:54:10;22.70;99.90
19164;DHT22;9714;51.208;4.242;2022-08-06T07:56:41;22.80;99.90
19164;DHT22;9714;51.208;4.242;2022-08-06T07:59:09;23.00;99.90
19164;DHT22;9714;51.208;4.242;2022-08-06T08:01:37;22.90;99.90
19164;DHT22;9714;51.208;4.242;2022-08-06T08:04:06;22.70;99.90
19164;DHT22;9714;51.208;4.242;2022-08-06T08:06:52;22.70;99.90
19164;DHT22;9714;51.208;4.242;2022-08-06T08:09:22;23.00;99.90
19164;DHT22;9714;51.208;4.242;2022-08-06T08:11:51;23.10;99.90
19164;DHT22;9714;51.208;4.242;2022-08-06T08:14:21;23.40;99.90
19164;DHT22;9714;51.208;4.242;2022-08-06T08:16:49;23.90;99.90
19164;DHT22;9714;51.208;4.242;2022-08-06T08:19:23;24.70;99.90
19164;DHT22;9714;51.208;4.242;2022-08-06T08:21:53;25.70;99.90
19164;DHT22;9714;51.208;4.242;2022-08-06T08:24:22;25.50;99.90
19164;DHT22;9714;51.208;4.242;2022-08-06T08:26:51;26.70;99.90
19164;DHT22;9714;51.208;4.242;2022-08-06T08:29:19;26.70;98.40
19164;DHT22;9714;51.208;4.242;2022-08-06T08:31:46;25.80;98.80
19164;DHT22;9714;51.208;4.242;2022-08-06T08:34:14;26.60;98.40
19164;DHT22;9714;51.208;4.242;2022-08-06T08:36:41;26.30;97.40
19164;DHT22;9714;51.208;4.242;2022-08-06T08:39:09;25.70;98.40
19164;DHT22;9714;51.208;4.242;2022-08-06T08:41:39;25.80;97.80
19164;DHT22;9714;51.208;4.242;2022-08-06T08:44:09;25.40;98.10
19164;DHT22;9714;51.208;4.242;2022-08-06T08:46:38;26.30;97.00
19164;DHT22;9714;51.208;4.242;2022-08-06T08:49:13;27.10;95.30
19164;DHT22;9714;51.208;4.242;2022-08-06T08:51:44;26.20;95.20
19164;DHT22;9714;51.208;4.242;2022-08-06T08:54:15;26.40;96.10
19164;DHT22;9714;51.208;4.242;2022-08-06T08:56:43;27.30;94.80
19164;DHT22;9714;51.208;4.242;2022-08-06T08:59:12;27.40;93.50
19164;DHT22;9714;51.208;4.242;2022-08-06T09:01:39;27.60;92.80
19164;DHT22;9714;51.208;4.242;2022-08-06T09:04:07;26.90;92.90
19164;DHT22;9714;51.208;4.242;2022-08-06T09:06:36;25.80;93.40
19164;DHT22;9714;51.208;4.242;2022-08-06T09:09:05;25.30;94.20
19164;DHT22;9714;51.208;4.242;2022-08-06T09:11:34;25.60;93.00
19164;DHT22;9714;51.208;4.242;2022-08-06T09:14:02;26.50;92.60
19164;DHT22;9714;51.208;4.242;2022-08-06T09:16:34;27.10;90.90
19164;DHT22;9714;51.208;4.242;2022-08-06T09:19:03;27.90;90.10
19164;DHT22;9714;51.208;4.242;2022-08-06T09:21:30;28.40;86.60
19164;DHT22;9714;51.208;4.242;2022-08-06T09:23:57;29.10;84.30
19164;DHT22;9714;51.208;4.242;2022-08-06T09:26:25;29.20;84.00
19164;DHT22;9714;51.208;4.242;2022-08-06T09:28:52;29.10;81.50
19164;DHT22;9714;51.208;4.242;2022-08-06T09:31:20;29.20;79.90
19164;DHT22;9714;51.208;4.242;2022-08-06T09:34:03;29.90;78.60
19164;DHT22;9714;51.208;4.242;2022-08-06T09:36:41;30.00;78.00
19164;DHT22;9714;51.208;4.242;2022-08-06T09:39:09;30.10;76.30
19164;DHT22;9714;51.208;4.242;2022-08-06T09:41:45;30.30;75.70
19164;DHT22;9714;51.208;4.242;2022-08-06T09:44:14;31.00;73.00
19164;DHT22;9714;51.208;4.242;2022-08-06T09:46:43;31.60;70.20
19164;DHT22;9714;51.208;4.242;2022-08-06T09:49:13;32.10;68.10
19164;DHT22;9714;51.208;4.242;2022-08-06T09:51:41;32.50;65.30
19164;DHT22;9714;51.208;4.242;2022-08-06T09:54:09;32.60;64.90
19164;DHT22;9714;51.208;4.242;2022-08-06T09:56:38;32.80;64.60
19164;DHT22;9714;51.208;4.242;2022-08-06T09:59:06;33.10;62.70
19164;DHT22;9714;51.208;4.242;2022-08-06T10:01:39;32.50;62.40
19164;DHT22;9714;51.208;4.242;2022-08-06T10:04:07;32.50;61.30
19164;DHT22;9714;51.208;4.242;2022-08-06T10:06:52;32.80;60.70
19164;DHT22;9714;51.208;4.242;2022-08-06T10:09:20;32.20;60.00
19164;DHT22;9714;51.208;4.242;2022-08-06T10:11:47;32.50;59.90
19164;DHT22;9714;51.208;4.242;2022-08-06T10:14:22;33.00;58.70
19164;DHT22;9714;51.208;4.242;2022-08-06T10:17:04;33.40;57.70
19164;DHT22;9714;51.208;4.242;2022-08-06T10:19:31;32.50;57.50
19164;DHT22;9714;51.208;4.242;2022-08-06T10:22:04;33.80;57.30
19164;DHT22;9714;51.208;4.242;2022-08-06T10:24:32;33.70;55.90
19164;DHT22;9714;51.208;4.242;2022-08-06T10:27:02;33.50;55.60
19164;DHT22;9714;51.208;4.242;2022-08-06T10:29:30;33.30;54.30
19164;DHT22;9714;51.208;4.242;2022-08-06T10:31:58;33.70;53.60
19164;DHT22;9714;51.208;4.242;2022-08-06T10:34:27;34.80;53.20
19164;DHT22;9714;51.208;4.242;2022-08-06T10:36:57;34.60;52.40
19164;DHT22;9714;51.208;4.242;2022-08-06T10:39:28;35.30;52.90
19164;DHT22;9714;51.208;4.242;2022-08-06T10:41:58;35.50;52.80
19164;DHT22;9714;51.208;4.242;2022-08-06T10:44:27;35.60;51.10
19164;DHT22;9714;51.208;4.242;2022-08-06T10:46:58;35.10;51.40
19164;DHT22;9714;51.208;4.242;2022-08-06T10:49:26;33.80;51.90
19164;DHT22;9714;51.208;4.242;2022-08-06T10:51:53;34.60;51.70
19164;DHT22;9714;51.208;4.242;2022-08-06T10:54:22;35.40;51.40
19164;DHT22;9714;51.208;4.242;2022-08-06T10:56:54;35.20;50.60
19164;DHT22;9714;51.208;4.242;2022-08-06T10:59:22;34.40;50.90
19164;DHT22;9714;51.208;4.242;2022-08-06T11:01:58;34.30;51.10
19164;DHT22;9714;51.208;4.242;2022-08-06T11:04:41;34.20;50.30
19164;DHT22;9714;51.208;4.242;2022-08-06T11:07:37;35.40;50.90
19164;DHT22;9714;51.208;4.242;2022-08-06T11:10:25;35.20;50.40
19164;DHT22;9714;51.208;4.242;2022-08-06T11:12:58;33.30;51.10
19164;DHT22;9714;51.208;4.242;2022-08-06T11:15:34;31.60;52.80
19164;DHT22;9714;51.208;4.242;2022-08-06T11:18:05;30.20;54.00
19164;DHT22;9714;51.208;4.242;2022-08-06T11:20:38;29.60;55.30
19164;DHT22;9714;51.208;4.242;2022-08-06T11:23:30;29.50;55.50
19164;DHT22;9714;51.208;4.242;2022-08-06T11:25:59;28.70;56.00
19164;DHT22;9714;51.208;4.242;2022-08-06T11:31:32;28.10;57.90
19164;DHT22;9714;51.208;4.242;2022-08-06T11:34:01;28.20;57.80
19164;DHT22;9714;51.208;4.242;2022-08-06T11:36:43;29.00;56.10
19164;DHT22;9714;51.208;4.242;2022-08-06T11:39:10;30.20;56.10
19164;DHT22;9714;51.208;4.242;2022-08-06T11:41:58;30.90;54.80
19164;DHT22;9714;51.208;4.242;2022-08-06T11:44:28;31.30;53.70
19164;DHT22;9714;51.208;4.242;2022-08-06T11:47:09;32.80;52.40
19164;DHT22;9714;51.208;4.242;2022-08-06T11:49:38;32.80;52.60
19164;DHT22;9714;51.208;4.242;2022-08-06T11:52:07;32.50;52.80
19164;DHT22;9714;51.208;4.242;2022-08-06T11:54:36;31.80;53.00
19164;DHT22;9714;51.208;4.242;2022-08-06T11:57:25;31.60;53.00
19164;DHT22;9714;51.208;4.242;2022-08-06T12:00:13;32.80;52.20
19164;DHT22;9714;51.208;4.242;2022-08-06T12:02:53;32.70;52.40
19164;DHT22;9714;51.208;4.242;2022-08-06T12:05:41;33.40;51.30
19164;DHT22;9714;51.208;4.242;2022-08-06T12:08:17;33.10;50.50
19164;DHT22;9714;51.208;4.242;2022-08-06T12:11:22;33.50;51.60
19164;DHT22;9714;51.208;4.242;2022-08-06T12:13:51;34.90;50.50
19164;DHT22;9714;51.208;4.242;2022-08-06T12:16:35;35.90;49.50
19164;DHT22;9714;51.208;4.242;2022-08-06T12:19:10;34.80;50.80
19164;DHT22;9714;51.208;4.242;2022-08-06T12:21:37;35.40;50.80
19164;DHT22;9714;51.208;4.242;2022-08-06T12:24:06;35.70;50.10
19164;DHT22;9714;51.208;4.242;2022-08-06T12:26:35;36.00;48.90
19164;DHT22;9714;51.208;4.242;2022-08-06T12:29:06;35.50;49.00
19164;DHT22;9714;51.208;4.242;2022-08-06T12:31:35;35.60;49.10
19164;DHT22;9714;51.208;4.242;2022-08-06T12:34:07;36.10;48.20
19164;DHT22;9714;51.208;4.242;2022-08-06T12:36:35;35.70;48.50
19164;DHT22;9714;51.208;4.242;2022-08-06T12:39:06;36.50;48.40
19164;DHT22;9714;51.208;4.242;2022-08-06T12:41:40;35.60;49.00
19164;DHT22;9714;51.208;4.242;2022-08-06T12:44:10;36.10;48.80
19164;DHT22;9714;51.208;4.242;2022-08-06T12:46:38;35.40;47.50
19164;DHT22;9714;51.208;4.242;2022-08-06T12:49:07;32.90;50.40
19164;DHT22;9714;51.208;4.242;2022-08-06T12:51:35;31.50;51.50
19164;DHT22;9714;51.208;4.242;2022-08-06T12:54:05;30.90;52.20
19164;DHT22;9714;51.208;4.242;2022-08-06T12:56:36;30.80;52.60
19164;DHT22;9714;51.208;4.242;2022-08-06T12:59:08;31.20;53.20
19164;DHT22;9714;51.208;4.242;2022-08-06T13:01:36;30.90;53.60
19164;DHT22;9714;51.208;4.242;2022-08-06T13:04:08;31.10;52.90
19164;DHT22;9714;51.208;4.242;2022-08-06T13:06:37;32.40;51.60
19164;DHT22;9714;51.208;4.242;2022-08-06T13:09:04;33.30;50.90
19164;DHT22;9714;51.208;4.242;2022-08-06T13:11:32;34.30;49.10
19164;DHT22;9714;51.208;4.242;2022-08-06T13:14:07;35.50;50.10
19164;DHT22;9714;51.208;4.242;2022-08-06T13:16:43;36.30;48.30
19164;DHT22;9714;51.208;4.242;2022-08-06T13:19:13;34.90;48.90
19164;DHT22;9714;51.208;4.242;2022-08-06T13:21:44;33.40;50.50
19164;DHT22;9714;51.208;4.242;2022-08-06T13:24:12;31.80;51.70
19164;DHT22;9714;51.208;4.242;2022-08-06T13:26:50;29.80;52.50
19164;DHT22;9714;51.208;4.242;2022-08-06T13:29:19;28.90;53.10
19164;DHT22;9714;51.208;4.242;2022-08-06T13:31:58;27.90;54.30
19164;DHT22;9714;51.208;4.242;2022-08-06T13:34:27;27.40;54.60
19164;DHT22;9714;51.208;4.242;2022-08-06T13:36:57;27.00;55.90
19164;DHT22;9714;51.208;4.242;2022-08-06T13:39:28;27.50;56.60
19164;DHT22;9714;51.208;4.242;2022-08-06T13:42:05;27.10;57.30
19164;DHT22;9714;51.208;4.242;2022-08-06T13:44:34;29.00;56.80
19164;DHT22;9714;51.208;4.242;2022-08-06T13:47:01;30.60;55.70
19164;DHT22;9714;51.208;4.242;2022-08-06T13:49:30;32.10;54.00
19164;DHT22;9714;51.208;4.242;2022-08-06T13:51:59;32.40;53.00
19164;DHT22;9714;51.208;4.242;2022-08-06T13:54:26;31.00;53.40
19164;DHT22;9714;51.208;4.242;2022-08-06T13:56:55;30.30;54.80
19164;DHT22;9714;51.208;4.242;2022-08-06T13:59:29;29.70;55.50
19164;DHT22;9714;51.208;4.242;2022-08-06T14:01:57;31.00;54.50
19164;DHT22;9714;51.208;4.242;2022-08-06T14:04:25;31.30;53.30
19164;DHT22;9714;51.208;4.242;2022-08-06T14:06:57;33.00;52.30
19164;DHT22;9714;51.208;4.242;2022-08-06T14:09:26;33.90;51.20
19164;DHT22;9714;51.208;4.242;2022-08-06T14:11:55;33.80;50.20
19164;DHT22;9714;51.208;4.242;2022-08-06T14:14:24;33.20;50.70
19164;DHT22;9714;51.208;4.242;2022-08-06T14:16:52;32.80;51.70
19164;DHT22;9714;51.208;4.242;2022-08-06T14:19:19;34.20;50.70
19164;DHT22;9714;51.208;4.242;2022-08-06T14:21:46;34.90;50.70
19164;DHT22;9714;51.208;4.242;2022-08-06T14:24:14;34.70;49.80
19164;DHT22;9714;51.208;4.242;2022-08-06T14:26:42;33.30;50.20
19164;DHT22;9714;51.208;4.242;2022-08-06T14:29:09;31.20;52.00
19164;DHT22;9714;51.208;4.242;2022-08-06T14:31:37;29.90;53.70
19164;DHT22;9714;51.208;4.242;2022-08-06T14:34:04;30.10;53.90
19164;DHT22;9714;51.208;4.242;2022-08-06T14:36:31;31.80;53.40
19164;DHT22;9714;51.208;4.242;2022-08-06T14:38:58;32.80;51.70
19164;DHT22;9714;51.208;4.242;2022-08-06T14:41:26;33.40;51.60
19164;DHT22;9714;51.208;4.242;2022-08-06T14:44:12;34.20;50.40
19164;DHT22;9714;51.208;4.242;2022-08-06T14:46:57;34.40;49.10
19164;DHT22;9714;51.208;4.242;2022-08-06T14:49:24;34.20;50.40
19164;DHT22;9714;51.208;4.242;2022-08-06T14:51:51;34.90;49.50
19164;DHT22;9714;51.208;4.242;2022-08-06T14:54:18;35.10;49.40
19164;DHT22;9714;51.208;4.242;2022-08-06T14:56:47;35.70;49.20
19164;DHT22;9714;51.208;4.242;2022-08-06T14:59:15;33.80;49.90
19164;DHT22;9714;51.208;4.242;2022-08-06T15:01:42;34.50;49.60
19164;DHT22;9714;51.208;4.242;2022-08-06T15:04:09;35.10;49.40
19164;DHT22;9714;51.208;4.242;2022-08-06T15:06:37;34.70;48.60
19164;DHT22;9714;51.208;4.242;2022-08-06T15:09:05;33.40;49.70
19164;DHT22;9714;51.208;4.242;2022-08-06T15:11:32;33.70;50.10
19164;DHT22;9714;51.208;4.242;2022-08-06T15:14:00;33.00;50.70
19164;DHT22;9714;51.208;4.242;2022-08-06T15:16:27;32.60;51.50
19164;DHT22;9714;51.208;4.242;2022-08-06T15:18:54;32.80;50.90
19164;DHT22;9714;51.208;4.242;2022-08-06T15:21:21;32.40;50.80
19164;DHT22;9714;51.208;4.242;2022-08-06T15:23:48;31.80;52.50
19164;DHT22;9714;51.208;4.242;2022-08-06T15:26:16;32.40;52.10
19164;DHT22;9714;51.208;4.242;2022-08-06T15:28:43;31.80;51.20
19164;DHT22;9714;51.208;4.242;2022-08-06T15:31:11;32.30;51.30
19164;DHT22;9714;51.208;4.242;2022-08-06T15:33:38;32.60;51.60
19164;DHT22;9714;51.208;4.242;2022-08-06T15:36:05;31.10;51.90
19164;DHT22;9714;51.208;4.242;2022-08-06T15:38:32;31.30;53.20
19164;DHT22;9714;51.208;4.242;2022-08-06T15:41:00;31.20;52.50
19164;DHT22;9714;51.208;4.242;2022-08-06T15:43:27;31.70;51.00
19164;DHT22;9714;51.208;4.242;2022-08-06T15:45:54;30.40;51.10
19164;DHT22;9714;51.208;4.242;2022-08-06T15:48:25;30.40;51.20
19164;DHT22;9714;51.208;4.242;2022-08-06T15:50:52;29.00;52.90
19164;DHT22;9714;51.208;4.242;2022-08-06T15:53:20;28.30;54.00
19164;DHT22;9714;51.208;4.242;2022-08-06T15:55:48;28.60;53.90
19164;DHT22;9714;51.208;4.242;2022-08-06T15:58:15;28.60;54.70
19164;DHT22;9714;51.208;4.242;2022-08-06T16:00:42;28.90;54.30
19164;DHT22;9714;51.208;4.242;2022-08-06T16:03:10;29.30;54.30
19164;DHT22;9714;51.208;4.242;2022-08-06T16:05:40;30.10;53.70
19164;DHT22;9714;51.208;4.242;2022-08-06T16:08:09;30.40;53.30
19164;DHT22;9714;51.208;4.242;2022-08-06T16:10:41;30.50;53.10